createdAt,value
2023-04-19T00:00:49.624Z,50.84
2023-04-19T00:03:16.590Z,52.34
2023-04-19T00:05:43.508Z,52.94
2023-04-19T00:08:10.075Z,53.33
2023-04-19T00:10:36.646Z,53.11
2023-04-19T00:13:03.250Z,53.64
2023-04-19T00:15:30.090Z,53.66
2023-04-19T00:17:56.970Z,53.11
2023-04-19T00:20:23.487Z,54.09
2023-04-19T00:22:50.069Z,53.71
2023-04-19T00:25:16.891Z,56.50
2023-04-19T00:27:43.726Z,57.90
2023-04-19T00:30:10.542Z,57.19
2023-04-19T00:32:38.834Z,59.34
2023-04-19T00:35:05.696Z,58.97
2023-04-19T00:37:32.276Z,59.11
2023-04-19T00:39:58.840Z,59.37
2023-04-19T00:42:25.380Z,60.57
2023-04-19T00:44:51.926Z,59.29
2023-04-19T00:50:07.049Z,58.77
2023-04-19T00:52:33.704Z,60.16
2023-04-19T00:55:00.263Z,61.33
2023-04-19T00:57:26.783Z,62.13
2023-04-19T00:59:53.314Z,61.57
2023-04-19T01:02:19.904Z,61.83
2023-04-19T01:04:46.829Z,61.48
2023-04-19T01:07:13.642Z,61.49
2023-04-19T01:09:40.301Z,59.31
2023-04-19T01:12:06.840Z,56.74
2023-04-19T01:14:33.375Z,55.41
2023-04-19T01:16:59.882Z,54.46
2023-04-19T01:19:26.698Z,55.44
2023-04-19T01:21:55.822Z,54.71
2023-04-19T01:24:23.131Z,53.19
2023-04-19T01:26:49.671Z,53.10
2023-04-19T01:29:16.183Z,53.09
2023-04-19T01:31:42.785Z,54.91
2023-04-19T01:34:09.736Z,55.73
2023-04-19T01:36:36.314Z,53.67
2023-04-19T01:39:02.835Z,52.74
2023-04-19T01:41:29.689Z,53.06
2023-04-19T01:43:56.257Z,53.00
2023-04-19T01:46:23.109Z,52.80
2023-04-19T01:48:49.836Z,52.43
2023-04-19T01:51:16.632Z,53.68
2023-04-19T01:53:43.192Z,55.09
2023-04-19T01:56:09.753Z,54.26
2023-04-19T01:58:36.618Z,57.34
2023-04-19T02:01:03.541Z,58.13
2023-04-19T02:03:30.490Z,59.06
2023-04-19T02:05:58.909Z,59.54
2023-04-19T02:08:25.730Z,60.23
2023-04-19T02:10:52.268Z,58.97
2023-04-19T02:13:19.072Z,59.35
2023-04-19T02:15:45.880Z,59.66
2023-04-19T02:18:12.467Z,61.56
2023-04-19T02:20:39.246Z,61.46
2023-04-19T02:23:06.064Z,61.49
2023-04-19T02:25:32.910Z,59.82
2023-04-19T02:27:59.392Z,60.34
2023-04-19T02:30:25.897Z,59.42
2023-04-19T02:32:52.489Z,61.55
2023-04-19T02:35:19.246Z,62.01
2023-04-19T02:37:45.877Z,62.47
2023-04-19T02:40:12.454Z,60.82
2023-04-19T02:42:39.497Z,60.46
2023-04-19T02:45:06.436Z,58.90
2023-04-19T02:47:33.077Z,58.37
2023-04-19T02:50:01.564Z,58.34
2023-04-19T02:52:28.325Z,57.73
2023-04-19T02:54:54.861Z,58.78
2023-04-19T02:57:21.408Z,59.06
2023-04-19T02:59:47.956Z,59.09
2023-04-19T03:02:14.445Z,58.77
2023-04-19T03:04:41.178Z,59.06
2023-04-19T03:07:07.731Z,59.25
2023-04-19T03:09:34.233Z,59.96
2023-04-19T03:12:01.004Z,58.95
2023-04-19T03:14:27.676Z,61.06
2023-04-19T03:16:54.272Z,59.64
2023-04-19T03:19:20.776Z,61.19
2023-04-19T03:21:47.327Z,62.49
2023-04-19T03:24:14.063Z,63.84
2023-04-19T03:26:41.127Z,61.95
2023-04-19T03:29:07.769Z,63.49
2023-04-19T03:31:34.328Z,64.09
2023-04-19T03:34:01.170Z,64.92
2023-04-19T03:36:27.710Z,64.87
2023-04-19T03:38:54.308Z,65.44
2023-04-19T03:41:20.952Z,64.36
2023-04-19T03:43:48.493Z,64.69
2023-04-19T03:46:15.067Z,65.70
2023-04-19T03:48:42.130Z,67.52
2023-04-19T03:51:08.938Z,67.74
2023-04-19T03:53:35.782Z,67.69
2023-04-19T03:56:02.451Z,66.21
2023-04-19T03:58:30.096Z,67.32
2023-04-19T04:00:56.607Z,66.91
2023-04-19T04:03:23.250Z,65.44
2023-04-19T04:05:50.057Z,65.20
2023-04-19T04:08:16.592Z,64.88
2023-04-19T04:10:43.084Z,65.85
2023-04-19T04:13:09.754Z,66.17
2023-04-19T04:15:36.611Z,68.20
2023-04-19T04:18:03.397Z,65.88
2023-04-19T04:20:30.038Z,64.30
2023-04-19T04:22:56.779Z,63.40
2023-04-19T04:25:23.411Z,63.62
2023-04-19T04:27:50.025Z,65.62
2023-04-19T04:30:16.628Z,64.35
2023-04-19T04:32:43.597Z,64.70
2023-04-19T04:35:10.526Z,64.28
2023-04-19T04:37:37.106Z,64.92
2023-04-19T04:40:03.834Z,64.40
2023-04-19T04:42:31.397Z,65.30
2023-04-19T04:44:58.878Z,65.64
2023-04-19T04:47:27.318Z,67.66
2023-04-19T04:49:53.869Z,67.70
2023-04-19T04:52:20.459Z,67.07
2023-04-19T04:54:46.964Z,66.29
2023-04-19T04:57:13.506Z,65.80
2023-04-19T04:59:40.137Z,65.68
2023-04-19T05:02:06.851Z,64.37
2023-04-19T05:04:33.520Z,64.48
2023-04-19T05:07:00.106Z,64.79
2023-04-19T05:09:26.697Z,61.60
2023-04-19T05:11:53.245Z,60.96
2023-04-19T05:14:19.768Z,62.42
2023-04-19T05:16:46.404Z,63.60
2023-04-19T05:19:13.346Z,63.83
2023-04-19T05:21:40.088Z,63.29
2023-04-19T05:24:06.670Z,60.53
2023-04-19T05:26:33.554Z,56.40
2023-04-19T05:29:00.025Z,54.59
2023-04-19T05:31:26.842Z,56.67
2023-04-19T05:33:54.112Z,54.59
2023-04-19T05:36:20.717Z,51.42
2023-04-19T05:38:47.292Z,48.34
2023-04-19T05:41:14.894Z,47.80
2023-04-19T05:43:41.707Z,50.57
2023-04-19T05:46:08.211Z,55.16
2023-04-19T05:48:35.394Z,56.84
2023-04-19T05:51:02.268Z,58.31
2023-04-19T05:53:28.928Z,58.76
2023-04-19T05:55:59.663Z,61.88
2023-04-19T05:58:26.331Z,62.93
2023-04-19T06:00:54.846Z,62.56
2023-04-19T06:03:21.659Z,63.59
2023-04-19T06:05:48.458Z,63.48
2023-04-19T06:08:15.100Z,62.68
2023-04-19T06:10:55.733Z,63.40
2023-04-19T06:13:26.560Z,63.22
2023-04-19T06:15:55.215Z,63.38
2023-04-19T06:18:22.180Z,62.04
2023-04-19T06:20:48.983Z,61.51
2023-04-19T06:23:15.619Z,59.66
2023-04-19T06:25:42.463Z,58.20
2023-04-19T06:28:09.286Z,60.03
2023-04-19T06:30:35.872Z,61.05
2023-04-19T06:33:04.885Z,61.09
2023-04-19T06:35:31.507Z,63.20
2023-04-19T06:37:58.140Z,61.08
2023-04-19T06:40:24.694Z,58.22
2023-04-19T06:42:56.529Z,56.65
2023-04-19T06:45:23.127Z,56.59
2023-04-19T06:47:53.899Z,54.93
2023-04-19T06:50:20.509Z,54.39
2023-04-19T06:52:47.080Z,52.93
2023-04-19T06:55:13.658Z,52.68
2023-04-19T06:57:40.543Z,52.03
2023-04-19T07:00:07.119Z,51.21
2023-04-19T07:02:33.754Z,53.60
2023-04-19T07:05:00.897Z,52.26
2023-04-19T07:07:30.491Z,51.67
2023-04-19T07:09:57.648Z,51.66
2023-04-19T07:12:24.260Z,52.78
2023-04-19T07:14:50.740Z,53.40
2023-04-19T07:17:17.350Z,54.04
2023-04-19T07:19:44.250Z,53.73
2023-04-19T07:24:38.062Z,52.60
2023-04-19T07:27:04.993Z,52.27
2023-04-19T07:29:31.592Z,52.29
2023-04-19T07:31:58.355Z,52.04
2023-04-19T07:34:25.166Z,51.98
2023-04-19T07:36:52.050Z,51.12
2023-04-19T07:39:18.516Z,51.92
2023-04-19T07:41:45.133Z,51.84
2023-04-19T07:44:11.942Z,52.12
2023-04-19T07:46:38.608Z,51.94
2023-04-19T07:49:06.200Z,53.21
2023-04-19T07:51:33.692Z,53.04
2023-04-19T07:54:00.498Z,52.55
2023-04-19T07:56:27.754Z,52.51
2023-04-19T07:59:06.772Z,51.41
2023-04-19T08:01:34.702Z,51.00
2023-04-19T08:04:01.873Z,50.20
2023-04-19T08:06:31.395Z,49.88
2023-04-19T08:08:58.186Z,49.64
2023-04-19T08:11:24.955Z,50.30
2023-04-19T08:17:05.818Z,50.96
2023-04-19T08:19:10.229Z,52.16
2023-04-19T08:21:41.136Z,52.93
2023-04-19T08:24:09.074Z,51.97
2023-04-19T08:26:36.050Z,51.51
2023-04-19T08:29:07.096Z,51.39
2023-04-19T08:31:33.745Z,51.13
2023-04-19T08:34:02.753Z,51.07
2023-04-19T08:36:37.730Z,51.88
2023-04-19T08:39:17.805Z,50.92
2023-04-19T08:41:59.343Z,52.25
2023-04-19T08:44:36.848Z,50.71
2023-04-19T08:47:05.824Z,50.57
2023-04-19T08:49:32.790Z,49.72
2023-04-19T08:52:00.248Z,50.62
2023-04-19T08:54:26.851Z,50.53
2023-04-19T08:56:53.357Z,50.82
2023-04-19T08:59:20.501Z,50.65
2023-04-19T09:01:47.537Z,49.89
2023-04-19T09:06:45.590Z,49.90
2023-04-19T09:09:24.412Z,49.15
2023-04-19T09:11:58.943Z,48.26
2023-04-19T09:14:25.454Z,47.64
2023-04-19T09:16:52.998Z,46.61
2023-04-19T09:19:24.723Z,46.33
2023-04-19T09:21:52.369Z,48.73
2023-04-19T09:24:18.951Z,49.00
2023-04-19T09:26:45.756Z,51.26
2023-04-19T09:29:14.639Z,51.83
2023-04-19T09:31:50.574Z,51.87
2023-04-19T09:34:19.148Z,49.37
2023-04-19T09:36:46.584Z,48.18
2023-04-19T09:39:13.460Z,48.13
2023-04-19T09:41:41.484Z,46.73
2023-04-19T09:46:41.046Z,45.42
2023-04-19T09:49:21.252Z,45.92
2023-04-19T09:51:54.005Z,45.92
2023-04-19T09:54:21.071Z,46.51
2023-04-19T09:56:47.862Z,46.13
2023-04-19T09:59:20.635Z,45.63
2023-04-19T10:01:47.923Z,45.80
2023-04-19T10:04:24.097Z,46.29
2023-04-19T10:07:28.480Z,46.15
2023-04-19T10:14:47.851Z,46.94
2023-04-19T10:17:16.817Z,45.88
2023-04-19T10:19:43.552Z,47.19
2023-04-19T10:22:10.931Z,49.37
2023-04-19T10:24:38.076Z,48.23
2023-04-19T10:27:05.089Z,46.39
2023-04-19T10:29:31.699Z,48.59
2023-04-19T10:32:01.031Z,48.02
2023-04-19T10:34:27.691Z,48.04
2023-04-19T10:36:54.529Z,46.97
2023-04-19T10:39:21.273Z,47.63
2023-04-19T10:41:50.195Z,48.47
2023-04-19T10:44:17.282Z,47.30
2023-04-19T10:46:43.870Z,46.96
2023-04-19T10:49:10.437Z,49.20
2023-04-19T10:51:37.407Z,49.30
2023-04-19T10:54:05.949Z,48.55
2023-04-19T10:56:32.851Z,49.40
2023-04-19T10:58:59.877Z,48.64
2023-04-19T11:01:26.628Z,46.91
2023-04-19T11:03:53.557Z,45.93
2023-04-19T11:06:20.337Z,48.38
2023-04-19T11:08:49.332Z,48.32
2023-04-19T11:11:19.511Z,48.03
2023-04-19T11:13:47.407Z,47.24
2023-04-19T11:16:14.387Z,49.42
2023-04-19T11:18:41.377Z,49.26
2023-04-19T11:21:11.191Z,47.93
2023-04-19T11:23:38.043Z,47.05
2023-04-19T11:29:15.739Z,49.20
2023-04-19T11:31:42.595Z,47.22
2023-04-19T11:34:09.521Z,47.34
2023-04-19T11:36:36.525Z,48.97
2023-04-19T11:39:03.368Z,48.64
2023-04-19T11:41:29.923Z,49.63
2023-04-19T11:43:57.948Z,50.08
2023-04-19T11:46:26.939Z,47.46
2023-04-19T11:48:53.864Z,46.29
2023-04-19T11:51:20.439Z,47.39
2023-04-19T11:53:48.874Z,48.41
2023-04-19T11:56:16.025Z,46.26
2023-04-19T11:58:43.005Z,46.41
2023-04-19T12:01:09.632Z,48.16
2023-04-19T12:03:37.198Z,46.52
2023-04-19T12:06:04.594Z,46.07
2023-04-19T12:08:31.807Z,47.26
2023-04-19T12:10:58.530Z,47.44
2023-04-19T12:13:25.190Z,46.96
2023-04-19T12:15:54.609Z,45.93
2023-04-19T12:18:21.280Z,46.29
2023-04-19T12:20:48.254Z,45.13
2023-04-19T12:23:15.035Z,46.15
2023-04-19T12:25:41.663Z,45.43
2023-04-19T12:28:08.452Z,45.58
2023-04-19T12:30:39.104Z,46.40
2023-04-19T12:33:05.794Z,48.05
2023-04-19T12:35:33.206Z,46.95
2023-04-19T12:38:00.052Z,45.69
2023-04-19T12:40:26.695Z,43.83
2023-04-19T12:42:53.492Z,44.53
2023-04-19T12:45:21.341Z,44.88
2023-04-19T12:47:48.104Z,44.72
2023-04-19T12:50:14.765Z,45.51
2023-04-19T12:52:42.127Z,44.40
2023-04-19T12:55:08.660Z,43.11
2023-04-19T12:57:35.137Z,43.69
2023-04-19T13:00:03.977Z,43.96
2023-04-19T13:02:30.734Z,43.98
2023-04-19T13:04:57.733Z,42.93
2023-04-19T13:07:25.319Z,43.03
2023-04-19T13:09:55.463Z,42.50
2023-04-19T13:12:24.192Z,42.16
2023-04-19T13:14:51.103Z,43.04
2023-04-19T13:17:17.729Z,43.71
2023-04-19T13:19:45.186Z,45.30
2023-04-19T13:22:12.099Z,46.78
2023-04-19T13:24:38.697Z,46.33
2023-04-19T13:27:07.427Z,46.22
2023-04-19T13:29:35.577Z,44.81
2023-04-19T13:32:02.078Z,44.39
2023-04-19T13:34:28.651Z,43.89
2023-04-19T13:36:55.149Z,43.02
2023-04-19T13:39:22.023Z,43.49
2023-04-19T13:41:48.549Z,44.24
2023-04-19T13:44:15.555Z,44.39
2023-04-19T13:46:45.794Z,44.62
2023-04-19T13:49:12.321Z,44.84
2023-04-19T13:51:50.365Z,44.15
2023-04-19T13:54:21.012Z,44.83
2023-04-19T13:56:51.953Z,45.52
2023-04-19T13:59:19.157Z,45.20
2023-04-19T14:01:48.257Z,43.69
2023-04-19T14:04:15.434Z,43.79
2023-04-19T14:06:42.500Z,44.07
2023-04-19T14:09:09.089Z,43.66
2023-04-19T14:11:36.699Z,43.38
2023-04-19T14:14:03.956Z,43.43
2023-04-19T14:16:30.832Z,43.69
2023-04-19T14:18:57.510Z,41.96
2023-04-19T14:21:24.858Z,41.97
2023-04-19T14:23:51.699Z,41.82
2023-04-19T14:26:18.250Z,42.46
2023-04-19T14:28:45.114Z,41.82
2023-04-19T14:31:11.721Z,43.06
2023-04-19T14:33:38.307Z,42.44
2023-04-19T14:36:05.143Z,41.85
2023-04-19T14:38:32.022Z,42.90
2023-04-19T14:40:58.820Z,43.54
2023-04-19T14:43:26.859Z,42.65
2023-04-19T14:45:53.603Z,43.07
2023-04-19T14:48:21.954Z,42.68
2023-04-19T14:50:48.944Z,43.71
2023-04-19T14:53:15.792Z,43.32
2023-04-19T14:55:42.796Z,45.69
2023-04-19T14:58:09.435Z,45.07
2023-04-19T15:00:36.339Z,45.09
2023-04-19T15:03:03.295Z,44.37
2023-04-19T15:05:34.024Z,44.14
2023-04-19T15:08:00.869Z,44.77
2023-04-19T15:10:27.742Z,43.57
2023-04-19T15:12:54.526Z,44.38
2023-04-19T15:15:21.088Z,44.18
2023-04-19T15:17:47.952Z,42.81
2023-04-19T15:20:14.842Z,43.32
2023-04-19T15:22:41.517Z,44.27
2023-04-19T15:25:08.799Z,42.61
2023-04-19T15:27:35.984Z,43.17
2023-04-19T15:30:02.603Z,44.23
2023-04-19T15:32:29.958Z,44.92
2023-04-19T15:34:56.421Z,43.25
2023-04-19T15:37:22.978Z,42.82
2023-04-19T15:39:50.095Z,44.04
2023-04-19T15:42:16.673Z,44.75
2023-04-19T15:44:44.254Z,44.35
2023-04-19T15:47:11.338Z,44.25
2023-04-19T15:49:38.307Z,43.99
2023-04-19T15:52:07.233Z,42.83
2023-04-19T15:54:33.761Z,43.38
2023-04-19T15:57:00.837Z,42.53
2023-04-19T15:59:27.796Z,42.25
2023-04-19T16:01:54.629Z,41.83
2023-04-19T16:04:21.347Z,43.69
2023-04-19T16:06:48.239Z,43.82
2023-04-19T16:09:15.381Z,43.52
2023-04-19T16:11:42.209Z,42.24
2023-04-19T16:14:10.989Z,44.27
2023-04-19T16:16:37.561Z,44.87
2023-04-19T16:19:04.094Z,44.60
2023-04-19T16:21:33.687Z,44.29
2023-04-19T16:24:00.463Z,44.31
2023-04-19T16:26:29.143Z,44.25
2023-04-19T16:28:55.688Z,44.11
2023-04-19T16:31:22.303Z,44.47
2023-04-19T16:33:49.944Z,44.04
2023-04-19T16:36:18.954Z,45.48
2023-04-19T16:38:45.475Z,44.77
2023-04-19T16:41:12.150Z,45.23
2023-04-19T16:43:39.922Z,46.12
2023-04-19T16:46:06.547Z,46.74
2023-04-19T16:48:33.242Z,48.63
2023-04-19T16:51:00.093Z,48.83
2023-04-19T16:53:27.553Z,48.48
2023-04-19T16:55:56.366Z,47.45
2023-04-19T16:58:23.844Z,47.01
2023-04-19T17:00:50.750Z,46.10
2023-04-19T17:03:17.518Z,46.67
2023-04-19T17:05:46.184Z,47.33
2023-04-19T17:08:12.648Z,47.45
2023-04-19T17:10:42.413Z,46.51
2023-04-19T17:13:10.036Z,46.39
2023-04-19T17:15:39.216Z,46.29
2023-04-19T17:18:06.005Z,46.14
2023-04-19T17:20:32.772Z,46.73
2023-04-19T17:22:59.664Z,46.96
2023-04-19T17:25:26.354Z,47.70
2023-04-19T17:27:53.123Z,46.99
2023-04-19T17:30:21.929Z,46.62
2023-04-19T17:32:49.105Z,50.88
2023-04-19T17:35:16.013Z,50.55
2023-04-19T17:37:42.630Z,52.09
2023-04-19T17:40:09.138Z,50.89
2023-04-19T17:42:35.720Z,50.11
2023-04-19T17:45:02.476Z,49.12
2023-04-19T17:47:29.551Z,48.85
2023-04-19T17:49:56.115Z,48.11
2023-04-19T17:52:22.891Z,48.06
2023-04-19T17:54:49.815Z,48.11
2023-04-19T17:57:16.505Z,47.86
2023-04-19T17:59:43.041Z,49.21
2023-04-19T18:02:10.667Z,49.49
2023-04-19T18:04:37.604Z,51.42
2023-04-19T18:07:04.248Z,50.30
2023-04-19T18:09:32.324Z,51.80
2023-04-19T18:11:59.207Z,51.95
2023-04-19T18:14:25.985Z,49.12
2023-04-19T18:16:55.136Z,49.07
2023-04-19T18:19:23.666Z,50.62
2023-04-19T18:21:50.174Z,48.96
2023-04-19T18:24:16.744Z,48.29
2023-04-19T18:26:43.689Z,47.77
2023-04-19T18:29:10.566Z,47.47
2023-04-19T18:31:37.249Z,48.72
2023-04-19T18:34:03.835Z,49.06
2023-04-19T18:36:30.340Z,48.69
2023-04-19T18:38:56.920Z,47.81
2023-04-19T18:41:23.540Z,46.59
2023-04-19T18:44:11.025Z,50.14
2023-04-19T18:46:37.445Z,49.97
2023-04-19T18:49:06.086Z,49.73
2023-04-19T18:51:35.038Z,49.34
2023-04-19T18:54:01.839Z,48.04
2023-04-19T18:57:06.768Z,49.25
2023-04-19T18:59:17.641Z,49.75
2023-04-19T19:01:44.471Z,49.84
2023-04-19T19:04:31.569Z,50.34
2023-04-19T19:07:02.385Z,50.40
2023-04-19T19:09:34.930Z,50.59
2023-04-19T19:12:01.687Z,50.27
2023-04-19T19:14:28.907Z,50.47
2023-04-19T19:16:55.710Z,50.87
2023-04-19T19:19:22.801Z,51.16
2023-04-19T19:21:49.553Z,51.99
2023-04-19T19:24:16.469Z,51.80
2023-04-19T19:26:43.061Z,52.10
2023-04-19T19:29:09.679Z,52.59
2023-04-19T19:31:36.477Z,52.20
2023-04-19T19:34:13.824Z,51.85
2023-04-19T19:36:49.171Z,52.16
2023-04-19T19:39:16.129Z,51.73
2023-04-19T19:44:13.057Z,52.62
2023-04-19T19:46:40.626Z,52.22
2023-04-19T19:49:11.499Z,52.54
2023-04-19T19:51:56.960Z,52.55
2023-04-19T19:54:25.728Z,52.44
2023-04-19T19:59:29.232Z,52.30
2023-04-19T20:01:56.938Z,51.80
2023-04-19T20:04:23.850Z,51.97
2023-04-19T20:09:20.283Z,49.26
2023-04-19T20:11:47.296Z,47.65
2023-04-19T20:14:13.885Z,49.76
2023-04-19T20:16:42.863Z,48.90
2023-04-19T20:19:09.481Z,48.03
2023-04-19T20:21:36.046Z,47.28
2023-04-19T20:24:02.612Z,45.99
2023-04-19T20:26:29.150Z,45.18
2023-04-19T20:28:55.686Z,44.40
2023-04-19T20:31:23.954Z,44.44
2023-04-19T20:33:50.690Z,43.65
2023-04-19T20:36:17.238Z,45.85
2023-04-19T20:38:43.777Z,45.81
2023-04-19T20:41:10.513Z,44.63
2023-04-19T20:43:37.346Z,44.55
2023-04-19T20:46:03.964Z,44.02
2023-04-19T20:48:30.510Z,43.72
2023-04-19T20:50:57.280Z,43.67
2023-04-19T20:53:23.868Z,43.02
2023-04-19T20:55:50.762Z,44.64
2023-04-19T20:58:17.263Z,44.70
2023-04-19T21:00:43.844Z,44.65
2023-04-19T21:03:10.854Z,45.10
2023-04-19T21:05:38.663Z,43.78
2023-04-19T21:08:05.131Z,45.70
2023-04-19T21:10:33.595Z,45.05
2023-04-19T21:13:00.810Z,44.43
2023-04-19T21:15:27.364Z,44.63
2023-04-19T21:17:53.985Z,43.85
2023-04-19T21:20:20.529Z,43.72
2023-04-19T21:22:47.269Z,43.81
2023-04-19T21:25:14.015Z,43.98
2023-04-19T21:27:40.532Z,43.50
2023-04-19T21:30:07.044Z,43.41
2023-04-19T21:32:35.801Z,44.12
2023-04-19T21:35:02.349Z,43.81
2023-04-19T21:37:28.944Z,44.46
2023-04-19T21:39:56.054Z,44.18
2023-04-19T21:42:22.608Z,46.42
2023-04-19T21:44:49.201Z,45.17
2023-04-19T21:47:15.832Z,45.50
2023-04-19T21:49:44.238Z,47.75
2023-04-19T21:52:10.702Z,46.54
2023-04-19T21:54:37.270Z,46.99
2023-04-19T21:57:04.088Z,46.16
2023-04-19T21:59:32.710Z,45.88
2023-04-19T22:01:59.448Z,45.68
2023-04-19T22:04:26.101Z,45.82
2023-04-19T22:06:55.167Z,45.78
2023-04-19T22:09:21.674Z,45.64
2023-04-19T22:11:48.175Z,46.11
2023-04-19T22:14:14.705Z,47.76
2023-04-19T22:16:41.256Z,46.21
2023-04-19T22:19:07.760Z,46.03
2023-04-19T22:21:34.645Z,45.90
2023-04-19T22:24:01.197Z,46.22
2023-04-19T22:26:28.492Z,45.91
2023-04-19T22:28:55.267Z,46.07
2023-04-19T22:31:21.859Z,47.26
2023-04-19T22:33:48.412Z,47.18
2023-04-19T22:36:14.894Z,47.06
2023-04-19T22:38:41.524Z,46.20
2023-04-19T22:41:08.150Z,46.09
2023-04-19T22:43:34.686Z,46.24
2023-04-19T22:46:01.284Z,45.95
2023-04-19T22:48:27.952Z,45.42
2023-04-19T22:50:54.495Z,45.63
2023-04-19T22:53:21.028Z,47.51
2023-04-19T22:55:47.582Z,47.87
2023-04-19T22:58:14.065Z,51.31
2023-04-19T23:00:40.660Z,52.06
2023-04-19T23:03:07.505Z,49.89
2023-04-19T23:05:35.092Z,49.27
2023-04-19T23:08:01.926Z,48.42
2023-04-19T23:10:28.580Z,48.34
2023-04-19T23:12:55.422Z,48.16
2023-04-19T23:15:21.952Z,47.82
2023-04-19T23:17:48.491Z,47.51
2023-04-19T23:20:15.279Z,47.13
2023-04-19T23:22:41.858Z,48.28
2023-04-19T23:25:08.624Z,48.38
2023-04-19T23:27:35.463Z,49.10
2023-04-19T23:30:02.036Z,50.85
2023-04-19T23:32:28.604Z,54.84
2023-04-19T23:34:55.299Z,55.21
2023-04-19T23:37:21.883Z,52.43
2023-04-19T23:39:48.461Z,53.23
2023-04-19T23:42:15.201Z,51.25
2023-04-19T23:44:43.915Z,53.23
2023-04-19T23:47:10.625Z,52.95
2023-04-19T23:49:37.145Z,55.04
2023-04-19T23:52:03.631Z,56.11
2023-04-19T23:54:30.250Z,54.66
2023-04-19T23:56:56.914Z,55.08
2023-04-19T23:59:23.405Z,55.07
